createdAt,value
2022-07-29T00:04:18.720Z,51.54
2022-07-29T00:09:20.527Z,50.95
2022-07-29T00:14:22.035Z,51.62
2022-07-29T00:19:23.555Z,50.56
2022-07-29T00:24:25.084Z,51.07
2022-07-29T00:29:34.942Z,50.87
2022-07-29T00:34:55.346Z,51.91
2022-07-29T00:39:56.855Z,51.56
2022-07-29T00:44:58.370Z,51.80
2022-07-29T00:49:59.895Z,52.40
2022-07-29T00:55:06.314Z,52.37
2022-07-29T01:00:13.713Z,51.37
2022-07-29T01:05:15.768Z,50.98
2022-07-29T01:10:17.614Z,50.04
2022-07-29T01:15:19.190Z,49.76
2022-07-29T01:20:32.723Z,49.47
2022-07-29T01:25:47.974Z,50.34
2022-07-29T01:30:54.885Z,50.47
2022-07-29T01:35:58.899Z,50.77
2022-07-29T01:41:04.935Z,51.12
2022-07-29T01:46:09.526Z,50.59
2022-07-29T01:51:17.979Z,50.93
2022-07-29T01:56:19.740Z,51.05
2022-07-29T02:01:21.346Z,51.14
2022-07-29T02:06:23.365Z,50.50
2022-07-29T02:11:25.087Z,50.31
2022-07-29T02:16:26.674Z,50.38
2022-07-29T02:21:29.004Z,50.42
2022-07-29T02:26:30.408Z,50.19
2022-07-29T02:31:34.691Z,50.19
2022-07-29T02:36:36.364Z,50.34
2022-07-29T02:41:51.867Z,50.82
2022-07-29T02:47:16.860Z,50.79
2022-07-29T02:52:32.974Z,51.48
2022-07-29T02:57:54.534Z,51.32
2022-07-29T03:02:59.632Z,51.08
2022-07-29T03:08:05.507Z,51.20
2022-07-29T03:13:07.343Z,51.47
2022-07-29T03:18:09.409Z,51.50
2022-07-29T03:23:10.929Z,51.51
2022-07-29T03:28:12.452Z,51.36
2022-07-29T03:33:13.965Z,51.71
2022-07-29T03:38:15.476Z,51.12
2022-07-29T03:43:17.749Z,51.70
2022-07-29T03:48:21.124Z,50.92
2022-07-29T03:53:22.634Z,51.28
2022-07-29T03:58:24.277Z,51.90
2022-07-29T04:03:25.879Z,52.30
2022-07-29T04:08:27.477Z,52.26
2022-07-29T04:13:28.999Z,52.66
2022-07-29T04:18:30.519Z,52.72
2022-07-29T04:23:34.860Z,52.42
2022-07-29T04:28:36.467Z,52.50
2022-07-29T04:33:37.966Z,51.86
2022-07-29T04:38:39.896Z,51.96
2022-07-29T04:43:41.409Z,52.20
2022-07-29T04:48:43.372Z,52.66
2022-07-29T04:53:44.945Z,51.76
2022-07-29T04:58:46.713Z,51.53
2022-07-29T05:03:48.245Z,51.08
2022-07-29T05:08:49.777Z,49.14
2022-07-29T05:13:51.297Z,49.64
2022-07-29T05:18:52.888Z,48.37
2022-07-29T05:23:54.393Z,48.66
2022-07-29T05:28:55.973Z,48.05
2022-07-29T05:33:57.498Z,48.65
2022-07-29T05:38:59.031Z,48.74
2022-07-29T05:44:00.610Z,48.52
2022-07-29T05:49:03.768Z,48.12
2022-07-29T05:54:05.391Z,48.71
2022-07-29T05:59:06.980Z,48.23
2022-07-29T06:04:20.502Z,48.57
2022-07-29T06:09:23.973Z,48.18
2022-07-29T06:14:26.082Z,48.95
2022-07-29T06:19:27.503Z,48.62
2022-07-29T06:24:29.012Z,48.45
2022-07-29T06:29:30.556Z,48.45
2022-07-29T06:34:32.070Z,48.47
2022-07-29T06:39:37.673Z,49.07
2022-07-29T06:44:39.229Z,49.03
2022-07-29T06:49:40.778Z,48.76
2022-07-29T06:54:48.857Z,49.02
2022-07-29T06:59:50.379Z,49.46
2022-07-29T07:04:51.900Z,48.57
2022-07-29T07:09:53.416Z,48.71
2022-07-29T07:14:54.929Z,49.00
2022-07-29T07:19:56.481Z,48.47
2022-07-29T07:24:58.019Z,48.30
2022-07-29T07:29:59.548Z,47.87
2022-07-29T07:35:01.090Z,47.22
2022-07-29T07:40:02.778Z,48.33
2022-07-29T07:45:13.571Z,47.43
2022-07-29T07:50:18.999Z,47.97
2022-07-29T07:55:21.103Z,47.28
2022-07-29T08:00:22.987Z,46.30
2022-07-29T08:05:25.084Z,46.63
2022-07-29T08:10:45.168Z,46.59
2022-07-29T08:15:46.988Z,43.93
2022-07-29T08:20:48.505Z,45.04
2022-07-29T08:25:50.704Z,43.26
2022-07-29T08:30:52.249Z,44.98
2022-07-29T08:35:53.773Z,41.22
2022-07-29T08:40:55.295Z,41.06
2022-07-29T08:45:56.890Z,41.35
2022-07-29T08:50:58.488Z,40.76
2022-07-29T08:56:01.324Z,39.85
2022-07-29T09:01:03.217Z,41.38
2022-07-29T09:06:04.950Z,39.85
2022-07-29T09:11:07.894Z,39.12
2022-07-29T09:16:09.857Z,39.40
2022-07-29T09:21:31.663Z,40.12
2022-07-29T09:26:34.203Z,39.08
2022-07-29T09:31:37.604Z,39.88
2022-07-29T09:36:43.370Z,40.37
2022-07-29T09:41:53.868Z,40.50
2022-07-29T09:47:10.623Z,41.15
2022-07-29T09:52:12.613Z,41.04
2022-07-29T09:57:30.924Z,42.14
2022-07-29T10:02:34.230Z,42.48
2022-07-29T10:07:53.867Z,42.83
2022-07-29T10:13:03.043Z,43.26
2022-07-29T10:18:08.882Z,40.82
2022-07-29T10:23:10.431Z,40.16
2022-07-29T10:28:15.987Z,39.47
2022-07-29T10:33:52.523Z,39.73
2022-07-29T10:39:03.291Z,39.86
2022-07-29T10:44:17.372Z,40.78
2022-07-29T10:49:27.069Z,40.08
2022-07-29T10:54:38.023Z,40.98
2022-07-29T10:59:53.135Z,41.43
2022-07-29T11:04:55.016Z,41.00
2022-07-29T11:10:16.437Z,42.52
2022-07-29T11:15:20.086Z,43.92
2022-07-29T11:20:38.293Z,43.60
2022-07-29T11:31:01.306Z,43.99
2022-07-29T11:36:16.892Z,43.70
2022-07-29T11:41:19.008Z,43.51
2022-07-29T11:46:45.359Z,42.74
2022-07-29T11:51:54.970Z,42.82
2022-07-29T11:56:58.743Z,42.79
2022-07-29T12:02:18.412Z,42.31
2022-07-29T12:07:48.537Z,42.80
2022-07-29T12:12:53.809Z,41.87
2022-07-29T12:17:55.334Z,44.18
2022-07-29T12:22:56.846Z,42.32
2022-07-29T12:28:02.056Z,43.12
2022-07-29T12:33:03.622Z,44.16
2022-07-29T12:38:05.324Z,42.88
2022-07-29T12:43:11.594Z,42.92
2022-07-29T12:48:13.278Z,43.74
2022-07-29T12:53:14.856Z,43.50
2022-07-29T12:58:29.369Z,44.26
2022-07-29T13:03:57.549Z,45.66
2022-07-29T13:09:11.559Z,46.88
2022-07-29T13:14:15.335Z,47.28
2022-07-29T13:19:16.983Z,46.23
2022-07-29T13:24:19.977Z,48.86
2022-07-29T13:29:21.634Z,48.35
2022-07-29T13:34:25.299Z,49.24
2022-07-29T13:39:26.844Z,48.77
2022-07-29T13:44:28.376Z,49.37
2022-07-29T13:49:29.906Z,48.47
2022-07-29T13:54:31.463Z,46.77
2022-07-29T13:59:32.988Z,46.29
2022-07-29T14:04:34.587Z,44.77
2022-07-29T14:09:40.934Z,43.61
2022-07-29T14:14:44.261Z,44.59
2022-07-29T14:19:48.836Z,43.55
2022-07-29T14:24:50.352Z,44.12
2022-07-29T14:29:51.893Z,43.58
2022-07-29T14:34:53.403Z,44.25
2022-07-29T14:39:55.501Z,44.82
2022-07-29T14:44:57.172Z,44.48
2022-07-29T14:49:58.683Z,43.95
2022-07-29T14:55:00.490Z,44.61
2022-07-29T15:00:02.572Z,44.54
2022-07-29T15:05:04.395Z,44.93
2022-07-29T15:10:06.278Z,46.41
2022-07-29T15:15:09.970Z,46.06
2022-07-29T15:20:12.687Z,47.69
2022-07-29T15:25:14.206Z,46.84
2022-07-29T15:30:32.735Z,48.79
2022-07-29T15:35:40.323Z,49.68
2022-07-29T15:40:44.160Z,48.40
2022-07-29T15:46:05.803Z,48.52
2022-07-29T15:51:07.437Z,45.97
2022-07-29T15:56:09.126Z,46.82
2022-07-29T16:01:11.374Z,46.24
2022-07-29T16:06:13.303Z,47.87
2022-07-29T16:11:14.928Z,48.28
2022-07-29T16:16:18.234Z,47.21
2022-07-29T16:21:19.769Z,49.68
2022-07-29T16:26:21.464Z,48.82
2022-07-29T16:31:23.252Z,48.87
2022-07-29T16:36:24.903Z,49.46
2022-07-29T16:41:26.451Z,49.20
2022-07-29T16:46:27.898Z,49.13
2022-07-29T16:51:30.132Z,49.15
2022-07-29T16:56:31.645Z,48.80
2022-07-29T17:01:33.074Z,48.39
2022-07-29T17:06:35.615Z,49.87
2022-07-29T17:11:53.764Z,48.95
2022-07-29T17:17:00.096Z,48.83
2022-07-29T17:22:18.644Z,49.51
2022-07-29T17:27:20.876Z,49.97
2022-07-29T17:32:22.281Z,49.72
2022-07-29T17:37:23.853Z,50.17
2022-07-29T17:42:25.363Z,50.04
2022-07-29T17:47:26.865Z,51.63
2022-07-29T17:52:28.384Z,51.04
2022-07-29T17:57:29.982Z,49.37
2022-07-29T18:02:31.683Z,50.62
2022-07-29T18:07:33.753Z,48.87
2022-07-29T18:12:35.302Z,49.40
2022-07-29T18:17:53.836Z,49.15
2022-07-29T18:22:58.412Z,51.31
2022-07-29T18:28:01.236Z,50.83
2022-07-29T18:33:20.677Z,51.04
2022-07-29T18:38:23.169Z,52.12
2022-07-29T18:43:24.691Z,52.72
2022-07-29T18:48:26.202Z,52.28
2022-07-29T18:53:27.779Z,51.52
2022-07-29T18:58:29.471Z,53.72
2022-07-29T19:03:30.870Z,51.82
2022-07-29T19:08:32.396Z,51.19
2022-07-29T19:13:33.928Z,49.90
2022-07-29T19:18:35.544Z,50.21
2022-07-29T19:24:00.660Z,49.92
2022-07-29T19:28:58.606Z,49.44
2022-07-29T19:34:00.152Z,47.86
2022-07-29T19:39:01.760Z,46.18
2022-07-29T19:44:03.677Z,45.69
2022-07-29T19:49:08.098Z,44.98
2022-07-29T19:54:09.658Z,44.48
2022-07-29T19:59:11.289Z,44.27
2022-07-29T20:04:13.902Z,44.33
2022-07-29T20:09:20.442Z,44.31
2022-07-29T20:14:22.707Z,44.43
2022-07-29T20:19:24.229Z,43.86
2022-07-29T20:24:25.896Z,44.05
2022-07-29T20:29:27.730Z,43.95
2022-07-29T20:34:30.325Z,44.01
2022-07-29T20:39:31.860Z,44.11
2022-07-29T20:44:33.462Z,43.82
2022-07-29T20:49:36.330Z,43.95
2022-07-29T20:54:37.872Z,43.53
2022-07-29T20:59:42.768Z,44.32
2022-07-29T21:04:47.154Z,43.80
2022-07-29T21:09:48.661Z,43.94
2022-07-29T21:14:50.282Z,43.91
2022-07-29T21:19:53.233Z,43.71
2022-07-29T21:24:54.779Z,44.42
2022-07-29T21:29:56.317Z,44.79
2022-07-29T21:35:00.772Z,44.60
2022-07-29T21:40:02.169Z,45.62
2022-07-29T21:45:04.545Z,44.90
2022-07-29T21:50:06.349Z,45.14
2022-07-29T21:55:07.892Z,45.75
2022-07-29T22:00:15.650Z,45.14
2022-07-29T22:05:17.163Z,45.59
2022-07-29T22:10:18.703Z,45.71
2022-07-29T22:15:20.218Z,46.49
2022-07-29T22:20:22.736Z,46.98
2022-07-29T22:25:24.255Z,46.49
2022-07-29T22:30:25.860Z,46.11
2022-07-29T22:35:27.431Z,46.40
2022-07-29T22:40:30.741Z,46.22
2022-07-29T22:45:34.260Z,45.85
2022-07-29T22:50:35.788Z,46.06
2022-07-29T22:55:37.338Z,46.31
2022-07-29T23:00:38.962Z,46.56
2022-07-29T23:05:40.472Z,46.06
2022-07-29T23:10:42.000Z,46.59
2022-07-29T23:15:43.547Z,46.82
2022-07-29T23:20:45.417Z,47.43
2022-07-29T23:25:47.075Z,47.08
2022-07-29T23:30:48.699Z,47.31
2022-07-29T23:35:50.306Z,47.05
2022-07-29T23:40:51.851Z,47.47
2022-07-29T23:45:53.709Z,47.67
2022-07-29T23:50:55.382Z,47.89
2022-07-29T23:55:57.002Z,47.89
